sensor_id;sensor_type;location;lat;lon;timestamp;pressure;altitude;pressure_sealevel;temperature;humidity
53868;BME280;41577;47.470;19.080;2022-08-21T00:00:11;99594.19;;;19.66;92.03
53868;BME280;41577;47.470;19.080;2022-08-21T00:00:27;99590.66;;;19.65;91.97
53868;BME280;41577;47.470;19.080;2022-08-21T00:00:41;99600.41;;;19.67;92.17
53868;BME280;41577;47.470;19.080;2022-08-21T00:00:55;99599.31;;;19.68;92.21
53868;BME280;41577;47.470;19.080;2022-08-21T00:01:14;99597.44;;;19.68;92.19
53868;BME280;41577;47.470;19.080;2022-08-21T00:01:30;99603.13;;;19.67;92.23
53868;BME280;41577;47.470;19.080;2022-08-21T00:01:44;99604.19;;;19.65;91.81
53868;BME280;41577;47.470;19.080;2022-08-21T00:01:59;99598.78;;;19.65;92.23
53868;BME280;41577;47.470;19.080;2022-08-21T00:02:14;99610.97;;;19.68;92.44
53868;BME280;41577;47.470;19.080;2022-08-21T00:02:28;99602.84;;;19.68;92.15
53868;BME280;41577;47.470;19.080;2022-08-21T00:02:46;99605.31;;;19.70;91.64
53868;BME280;41577;47.470;19.080;2022-08-21T00:03:03;99604.53;;;19.69;91.80
53868;BME280;41577;47.470;19.080;2022-08-21T00:03:18;99601.00;;;19.69;91.83
53868;BME280;41577;47.470;19.080;2022-08-21T00:03:34;99596.91;;;19.66;92.15
53868;BME280;41577;47.470;19.080;2022-08-21T00:03:48;99601.78;;;19.64;91.63
53868;BME280;41577;47.470;19.080;2022-08-21T00:04:04;99600.69;;;19.65;91.98
53868;BME280;41577;47.470;19.080;2022-08-21T00:04:19;99600.69;;;19.65;92.15
53868;BME280;41577;47.470;19.080;2022-08-21T00:04:33;99595.25;;;19.65;92.12
53868;BME280;41577;47.470;19.080;2022-08-21T00:04:48;99598.78;;;19.65;92.26
53868;BME280;41577;47.470;19.080;2022-08-21T00:05:04;99590.94;;;19.64;92.49
53868;BME280;41577;47.470;19.080;2022-08-21T00:05:20;99599.63;;;19.66;92.24
53868;BME280;41577;47.470;19.080;2022-08-21T00:05:40;99594.19;;;19.66;92.43
53868;BME280;41577;47.470;19.080;2022-08-21T00:05:55;99597.44;;;19.68;92.11
53868;BME280;41577;47.470;19.080;2022-08-21T00:06:09;99591.19;;;19.68;92.41
53868;BME280;41577;47.470;19.080;2022-08-21T00:06:23;99595.00;;;19.67;92.49
53868;BME280;41577;47.470;19.080;2022-08-21T00:06:40;99603.94;;;19.67;92.38
53868;BME280;41577;47.470;19.080;2022-08-21T00:06:56;99592.00;;;19.68;92.19
53868;BME280;41577;47.470;19.080;2022-08-21T00:07:10;99600.41;;;19.67;92.22
53868;BME280;41577;47.470;19.080;2022-08-21T00:07:25;99599.31;;;19.68;92.37
53868;BME280;41577;47.470;19.080;2022-08-21T00:07:40;99595.25;;;19.65;92.31
53868;BME280;41577;47.470;19.080;2022-08-21T00:07:54;99594.44;;;19.64;92.30
53868;BME280;41577;47.470;19.080;2022-08-21T00:08:10;99587.38;;;19.63;92.38
53868;BME280;41577;47.470;19.080;2022-08-21T00:08:25;99595.50;;;19.63;92.51
53868;BME280;41577;47.470;19.080;2022-08-21T00:08:39;99596.34;;;19.64;92.48
53868;BME280;41577;47.470;19.080;2022-08-21T00:08:55;99589.28;;;19.63;92.35
53868;BME280;41577;47.470;19.080;2022-08-21T00:09:09;99592.81;;;19.63;92.48
53868;BME280;41577;47.470;19.080;2022-08-21T00:09:25;99593.09;;;19.62;92.67
53868;BME280;41577;47.470;19.080;2022-08-21T00:09:39;99589.56;;;19.61;92.63
53868;BME280;41577;47.470;19.080;2022-08-21T00:09:54;99592.00;;;19.63;92.27
53868;BME280;41577;47.470;19.080;2022-08-21T00:10:11;99592.00;;;19.63;92.42
53868;BME280;41577;47.470;19.080;2022-08-21T00:10:25;99588.75;;;19.61;92.14
53868;BME280;41577;47.470;19.080;2022-08-21T00:10:41;99592.28;;;19.61;92.52
53868;BME280;41577;47.470;19.080;2022-08-21T00:10:57;99586.59;;;19.63;92.32
53868;BME280;41577;47.470;19.080;2022-08-21T00:11:12;99587.13;;;19.60;92.22
53868;BME280;41577;47.470;19.080;2022-08-21T00:11:26;99583.59;;;19.59;92.27
53868;BME280;41577;47.470;19.080;2022-08-21T00:11:41;99580.91;;;19.59;92.52
53868;BME280;41577;47.470;19.080;2022-08-21T00:11:55;99586.31;;;19.59;92.26
53868;BME280;41577;47.470;19.080;2022-08-21T00:12:09;99580.06;;;19.59;92.53
53868;BME280;41577;47.470;19.080;2022-08-21T00:12:23;99590.63;;;19.60;92.74
53868;BME280;41577;47.470;19.080;2022-08-21T00:12:39;99583.88;;;19.63;92.33
53868;BME280;41577;47.470;19.080;2022-08-21T00:12:53;99580.91;;;19.64;92.22
53868;BME280;41577;47.470;19.080;2022-08-21T00:13:09;99581.16;;;19.63;92.20
53868;BME280;41577;47.470;19.080;2022-08-21T00:13:24;99584.16;;;19.61;92.70
53868;BME280;41577;47.470;19.080;2022-08-21T00:13:39;99579.00;;;19.60;92.60
53868;BME280;41577;47.470;19.080;2022-08-21T00:13:55;99578.44;;;19.58;92.24
53868;BME280;41577;47.470;19.080;2022-08-21T00:14:09;99579.25;;;19.58;92.57
53868;BME280;41577;47.470;19.080;2022-08-21T00:14:24;99577.63;;;19.57;92.48
53868;BME280;41577;47.470;19.080;2022-08-21T00:14:39;99582.25;;;19.57;92.65
53868;BME280;41577;47.470;19.080;2022-08-21T00:14:54;99581.69;;;19.60;92.81
53868;BME280;41577;47.470;19.080;2022-08-21T00:15:13;99581.69;;;19.60;92.53
53868;BME280;41577;47.470;19.080;2022-08-21T00:15:30;99578.75;;;19.61;92.48
53868;BME280;41577;47.470;19.080;2022-08-21T00:15:47;99577.09;;;19.60;92.14
53868;BME280;41577;47.470;19.080;2022-08-21T00:16:03;99579.00;;;19.60;92.19
53868;BME280;41577;47.470;19.080;2022-08-21T00:16:19;99579.81;;;19.60;92.18
53868;BME280;41577;47.470;19.080;2022-08-21T00:16:33;99582.78;;;19.59;92.32
53868;BME280;41577;47.470;19.080;2022-08-21T00:16:48;99579.25;;;19.58;92.16
53868;BME280;41577;47.470;19.080;2022-08-21T00:17:02;99579.25;;;19.58;92.60
53868;BME280;41577;47.470;19.080;2022-08-21T00:17:17;99585.47;;;19.59;92.39
53868;BME280;41577;47.470;19.080;2022-08-21T00:17:31;99582.50;;;19.60;92.50
53868;BME280;41577;47.470;19.080;2022-08-21T00:17:46;99585.47;;;19.59;92.69
53868;BME280;41577;47.470;19.080;2022-08-21T00:18:01;99584.97;;;19.57;92.08
53868;BME280;41577;47.470;19.080;2022-08-21T00:18:16;99589.53;;;19.56;92.20
53868;BME280;41577;47.470;19.080;2022-08-21T00:18:30;99584.13;;;19.56;92.69
53868;BME280;41577;47.470;19.080;2022-08-21T00:18:45;99583.56;;;19.54;92.39
53868;BME280;41577;47.470;19.080;2022-08-21T00:19:00;99578.16;;;19.54;92.90
53868;BME280;41577;47.470;19.080;2022-08-21T00:19:16;99583.56;;;19.54;92.43
53868;BME280;41577;47.470;19.080;2022-08-21T00:19:30;99586.28;;;19.54;92.81
53868;BME280;41577;47.470;19.080;2022-08-21T00:19:44;99580.84;;;19.54;92.91
53868;BME280;41577;47.470;19.080;2022-08-21T00:20:00;99588.97;;;19.54;92.66
53868;BME280;41577;47.470;19.080;2022-08-21T00:20:16;99582.75;;;19.54;92.97
53868;BME280;41577;47.470;19.080;2022-08-21T00:20:33;99580.06;;;19.54;92.66
53868;BME280;41577;47.470;19.080;2022-08-21T00:20:48;99586.28;;;19.54;92.60
53868;BME280;41577;47.470;19.080;2022-08-21T00:21:02;99580.31;;;19.52;92.73
53868;BME280;41577;47.470;19.080;2022-08-21T00:21:16;99586.56;;;19.53;92.78
53868;BME280;41577;47.470;19.080;2022-08-21T00:21:31;99580.31;;;19.52;92.73
53868;BME280;41577;47.470;19.080;2022-08-21T00:21:46;99587.38;;;19.53;93.14
53868;BME280;41577;47.470;19.080;2022-08-21T00:22:00;99587.13;;;19.55;92.44
53868;BME280;41577;47.470;19.080;2022-08-21T00:22:16;99585.47;;;19.54;92.77
53868;BME280;41577;47.470;19.080;2022-08-21T00:22:31;99585.22;;;19.55;92.50
53868;BME280;41577;47.470;19.080;2022-08-21T00:22:46;99587.13;;;19.55;92.75
53868;BME280;41577;47.470;19.080;2022-08-21T00:23:01;99581.94;;;19.53;92.95
53868;BME280;41577;47.470;19.080;2022-08-21T00:23:15;99588.19;;;19.54;92.54
53868;BME280;41577;47.470;19.080;2022-08-21T00:23:29;99587.38;;;19.53;93.08
53868;BME280;41577;47.470;19.080;2022-08-21T00:23:44;99589.28;;;19.53;93.00
53868;BME280;41577;47.470;19.080;2022-08-21T00:24:00;99587.63;;;19.52;93.08
53868;BME280;41577;47.470;19.080;2022-08-21T00:24:14;99586.81;;;19.51;93.07
53868;BME280;41577;47.470;19.080;2022-08-21T00:24:29;99581.66;;;19.50;93.05
53868;BME280;41577;47.470;19.080;2022-08-21T00:24:43;99579.78;;;19.50;92.85
53868;BME280;41577;47.470;19.080;2022-08-21T00:24:57;99585.19;;;19.50;92.73
53868;BME280;41577;47.470;19.080;2022-08-21T00:25:13;99585.44;;;19.49;92.91
53868;BME280;41577;47.470;19.080;2022-08-21T00:25:28;99583.56;;;19.49;92.91
53868;BME280;41577;47.470;19.080;2022-08-21T00:25:43;99583.28;;;19.51;93.32
53868;BME280;41577;47.470;19.080;2022-08-21T00:25:57;99582.19;;;19.52;93.35
53868;BME280;41577;47.470;19.080;2022-08-21T00:26:13;99588.72;;;19.51;93.13
53868;BME280;41577;47.470;19.080;2022-08-21T00:26:29;99574.38;;;19.50;93.31
53868;BME280;41577;47.470;19.080;2022-08-21T00:26:43;99582.50;;;19.50;93.43
53868;BME280;41577;47.470;19.080;2022-08-21T00:26:58;99574.38;;;19.50;93.55
53868;BME280;41577;47.470;19.080;2022-08-21T00:27:12;99581.66;;;19.50;93.00
53868;BME280;41577;47.470;19.080;2022-08-21T00:27:26;99576.25;;;19.50;93.57
53868;BME280;41577;47.470;19.080;2022-08-21T00:27:41;99579.22;;;19.48;93.57
53868;BME280;41577;47.470;19.080;2022-08-21T00:27:55;99573.81;;;19.48;93.11
53868;BME280;41577;47.470;19.080;2022-08-21T00:28:12;99575.44;;;19.49;93.16
53868;BME280;41577;47.470;19.080;2022-08-21T00:28:26;99582.75;;;19.49;93.46
53868;BME280;41577;47.470;19.080;2022-08-21T00:28:40;99576.25;;;19.50;93.13
53868;BME280;41577;47.470;19.080;2022-08-21T00:28:55;99573.00;;;19.53;93.18
53868;BME280;41577;47.470;19.080;2022-08-21T00:29:09;99580.31;;;19.52;93.13
53868;BME280;41577;47.470;19.080;2022-08-21T00:29:23;99575.72;;;19.53;93.20
53868;BME280;41577;47.470;19.080;2022-08-21T00:29:38;99574.63;;;19.54;93.16
53868;BME280;41577;47.470;19.080;2022-08-21T00:29:55;99569.47;;;19.52;92.86
53868;BME280;41577;47.470;19.080;2022-08-21T00:30:12;99572.19;;;19.52;93.06
53868;BME280;41577;47.470;19.080;2022-08-21T00:30:28;99570.00;;;19.49;93.00
53868;BME280;41577;47.470;19.080;2022-08-21T00:30:43;99573.00;;;19.53;93.00
53868;BME280;41577;47.470;19.080;2022-08-21T00:30:58;99574.63;;;19.54;92.67
53868;BME280;41577;47.470;19.080;2022-08-21T00:31:12;99573.81;;;19.53;92.76
53868;BME280;41577;47.470;19.080;2022-08-21T00:31:27;99572.19;;;19.52;92.64
53868;BME280;41577;47.470;19.080;2022-08-21T00:31:42;99567.06;;;19.51;93.19
53868;BME280;41577;47.470;19.080;2022-08-21T00:31:56;99568.94;;;19.50;93.04
53868;BME280;41577;47.470;19.080;2022-08-21T00:32:12;99566.50;;;19.49;92.82
53868;BME280;41577;47.470;19.080;2022-08-21T00:32:27;99568.41;;;19.48;93.23
53868;BME280;41577;47.470;19.080;2022-08-21T00:32:42;99572.16;;;19.47;93.44
53868;BME280;41577;47.470;19.080;2022-08-21T00:33:02;99569.47;;;19.47;93.43
53868;BME280;41577;47.470;19.080;2022-08-21T00:33:17;99576.78;;;19.47;93.43
53868;BME280;41577;47.470;19.080;2022-08-21T00:33:32;99575.97;;;19.46;93.17
53868;BME280;41577;47.470;19.080;2022-08-21T00:33:46;99571.91;;;19.43;93.19
53868;BME280;41577;47.470;19.080;2022-08-21T00:34:00;99568.63;;;19.41;93.45
53868;BME280;41577;47.470;19.080;2022-08-21T00:34:15;99575.97;;;19.41;93.58
53868;BME280;41577;47.470;19.080;2022-08-21T00:34:29;99574.06;;;19.41;93.67
53868;BME280;41577;47.470;19.080;2022-08-21T00:34:44;99571.91;;;19.43;93.33
53868;BME280;41577;47.470;19.080;2022-08-21T00:34:59;99565.94;;;19.41;93.62
53868;BME280;41577;47.470;19.080;2022-08-21T00:35:15;99572.16;;;19.42;93.19
53868;BME280;41577;47.470;19.080;2022-08-21T00:35:34;99571.34;;;19.41;93.75
53868;BME280;41577;47.470;19.080;2022-08-21T00:35:48;99570.53;;;19.41;93.78
53868;BME280;41577;47.470;19.080;2022-08-21T00:36:03;99576.75;;;19.41;93.53
53868;BME280;41577;47.470;19.080;2022-08-21T00:36:17;99575.13;;;19.40;93.58
53868;BME280;41577;47.470;19.080;2022-08-21T00:36:32;99563.47;;;19.40;93.70
53868;BME280;41577;47.470;19.080;2022-08-21T00:36:48;99571.34;;;19.41;93.92
53868;BME280;41577;47.470;19.080;2022-08-21T00:37:03;99575.97;;;19.41;94.00
53868;BME280;41577;47.470;19.080;2022-08-21T00:37:17;99575.13;;;19.40;93.88
53868;BME280;41577;47.470;19.080;2022-08-21T00:37:31;99574.06;;;19.41;93.67
53868;BME280;41577;47.470;19.080;2022-08-21T00:37:46;99574.06;;;19.41;93.95
53868;BME280;41577;47.470;19.080;2022-08-21T00:38:01;99570.78;;;19.39;93.44
53868;BME280;41577;47.470;19.080;2022-08-21T00:38:17;99584.06;;;19.41;93.88
53868;BME280;41577;47.470;19.080;2022-08-21T00:38:33;99582.44;;;19.40;93.82
53868;BME280;41577;47.470;19.080;2022-08-21T00:38:47;99581.63;;;19.39;93.85
53868;BME280;41577;47.470;19.080;2022-08-21T00:39:03;99576.47;;;19.38;93.85
53868;BME280;41577;47.470;19.080;2022-08-21T00:39:17;99578.38;;;19.37;93.99
53868;BME280;41577;47.470;19.080;2022-08-21T00:39:31;99583.78;;;19.37;94.09
53868;BME280;41577;47.470;19.080;2022-08-21T00:39:47;99581.31;;;19.36;93.71
53868;BME280;41577;47.470;19.080;2022-08-21T00:40:02;99586.75;;;19.36;93.88
53868;BME280;41577;47.470;19.080;2022-08-21T00:40:20;99582.97;;;19.37;93.84
53868;BME280;41577;47.470;19.080;2022-08-21T00:40:37;99575.34;;;19.34;93.93
53868;BME280;41577;47.470;19.080;2022-08-21T00:40:55;99584.31;;;19.34;93.90
53868;BME280;41577;47.470;19.080;2022-08-21T00:41:11;99580.53;;;19.35;93.97
53868;BME280;41577;47.470;19.080;2022-08-21T00:41:26;99579.72;;;19.35;93.70
53868;BME280;41577;47.470;19.080;2022-08-21T00:41:42;99580.53;;;19.35;93.80
53868;BME280;41577;47.470;19.080;2022-08-21T00:41:57;99579.72;;;19.35;93.67
53868;BME280;41577;47.470;19.080;2022-08-21T00:42:12;99582.41;;;19.35;93.63
53868;BME280;41577;47.470;19.080;2022-08-21T00:42:29;99584.31;;;19.34;93.69
53868;BME280;41577;47.470;19.080;2022-08-21T00:42:45;99580.53;;;19.40;93.87
53868;BME280;41577;47.470;19.080;2022-08-21T00:42:59;99585.44;;;19.43;93.33
53868;BME280;41577;47.470;19.080;2022-08-21T00:43:17;99584.88;;;19.41;93.04
53868;BME280;41577;47.470;19.080;2022-08-21T00:43:34;99579.97;;;19.38;93.38
53868;BME280;41577;47.470;19.080;2022-08-21T00:43:49;99579.97;;;19.38;93.34
53868;BME280;41577;47.470;19.080;2022-08-21T00:44:07;99574.56;;;19.38;93.54
53868;BME280;41577;47.470;19.080;2022-08-21T00:44:21;99582.69;;;19.38;93.32
53868;BME280;41577;47.470;19.080;2022-08-21T00:44:35;99582.16;;;19.36;93.29
53868;BME280;41577;47.470;19.080;2022-08-21T00:44:50;99582.16;;;19.36;93.66
53868;BME280;41577;47.470;19.080;2022-08-21T00:45:06;99581.06;;;19.32;93.64
53868;BME280;41577;47.470;19.080;2022-08-21T00:45:20;99581.88;;;19.33;93.68
53868;BME280;41577;47.470;19.080;2022-08-21T00:45:36;99583.47;;;19.34;93.99
53868;BME280;41577;47.470;19.080;2022-08-21T00:45:51;99581.88;;;19.33;93.72
53868;BME280;41577;47.470;19.080;2022-08-21T00:46:07;99583.75;;;19.32;93.79
53868;BME280;41577;47.470;19.080;2022-08-21T00:46:22;99587.53;;;19.31;93.80
53868;BME280;41577;47.470;19.080;2022-08-21T00:46:37;99587.81;;;19.30;94.29
53868;BME280;41577;47.470;19.080;2022-08-21T00:46:52;99585.13;;;19.30;93.80
53868;BME280;41577;47.470;19.080;2022-08-21T00:47:07;99577.78;;;19.30;94.21
53868;BME280;41577;47.470;19.080;2022-08-21T00:47:22;99581.56;;;19.29;94.04
53868;BME280;41577;47.470;19.080;2022-08-21T00:47:36;99581.56;;;19.29;94.05
53868;BME280;41577;47.470;19.080;2022-08-21T00:47:51;99579.94;;;19.28;94.13
53868;BME280;41577;47.470;19.080;2022-08-21T00:48:05;99584.56;;;19.28;94.19
53868;BME280;41577;47.470;19.080;2022-08-21T00:48:21;99581.00;;;19.27;94.25
53868;BME280;41577;47.470;19.080;2022-08-21T00:48:35;99577.25;;;19.28;94.47
53868;BME280;41577;47.470;19.080;2022-08-21T00:48:49;99579.41;;;19.26;94.05
53868;BME280;41577;47.470;19.080;2022-08-21T00:49:03;99581.00;;;19.27;94.42
53868;BME280;41577;47.470;19.080;2022-08-21T00:49:18;99582.91;;;19.27;94.08
53868;BME280;41577;47.470;19.080;2022-08-21T00:49:33;99581.84;;;19.28;94.50
53868;BME280;41577;47.470;19.080;2022-08-21T00:49:47;99591.03;;;19.27;94.36
53868;BME280;41577;47.470;19.080;2022-08-21T00:50:04;99585.91;;;19.25;94.36
53868;BME280;41577;47.470;19.080;2022-08-21T00:50:19;99577.78;;;19.25;94.66
53868;BME280;41577;47.470;19.080;2022-08-21T00:50:38;99591.31;;;19.25;94.58
53868;BME280;41577;47.470;19.080;2022-08-21T00:50:57;99584.00;;;19.26;94.62
53868;BME280;41577;47.470;19.080;2022-08-21T00:51:16;99581.53;;;19.24;94.33
53868;BME280;41577;47.470;19.080;2022-08-21T00:51:37;99588.59;;;19.25;94.54
53868;BME280;41577;47.470;19.080;2022-08-21T00:51:57;99581.53;;;19.24;95.02
53868;BME280;41577;47.470;19.080;2022-08-21T00:52:15;99584.81;;;19.26;95.00
53868;BME280;41577;47.470;19.080;2022-08-21T00:52:34;99587.53;;;19.26;94.88
53868;BME280;41577;47.470;19.080;2022-08-21T00:52:50;99585.63;;;19.27;94.89
53868;BME280;41577;47.470;19.080;2022-08-21T00:53:06;99588.31;;;19.27;94.94
53868;BME280;41577;47.470;19.080;2022-08-21T00:53:22;99583.72;;;19.27;94.47
53868;BME280;41577;47.470;19.080;2022-08-21T00:53:39;99582.09;;;19.26;94.54
53868;BME280;41577;47.470;19.080;2022-08-21T00:53:57;99586.44;;;19.27;94.64
53868;BME280;41577;47.470;19.080;2022-08-21T00:54:15;99585.63;;;19.27;94.70
53868;BME280;41577;47.470;19.080;2022-08-21T00:54:31;99590.22;;;19.26;94.66
53868;BME280;41577;47.470;19.080;2022-08-21T00:54:45;99584.81;;;19.26;94.68
53868;BME280;41577;47.470;19.080;2022-08-21T00:55:01;99587.53;;;19.26;94.81
53868;BME280;41577;47.470;19.080;2022-08-21T00:55:34;99587.25;;;19.28;94.80
53868;BME280;41577;47.470;19.080;2022-08-21T00:55:52;99589.69;;;19.29;94.71
53868;BME280;41577;47.470;19.080;2022-08-21T00:56:10;99588.06;;;19.28;94.57
53868;BME280;41577;47.470;19.080;2022-08-21T00:56:25;99589.97;;;19.28;94.54
53868;BME280;41577;47.470;19.080;2022-08-21T00:56:40;99585.63;;;19.27;94.98
53868;BME280;41577;47.470;19.080;2022-08-21T00:56:57;99584.00;;;19.26;94.72
53868;BME280;41577;47.470;19.080;2022-08-21T00:57:16;99588.06;;;19.23;94.75
53868;BME280;41577;47.470;19.080;2022-08-21T00:57:35;99590.75;;;19.23;94.87
53868;BME280;41577;47.470;19.080;2022-08-21T00:57:52;99589.91;;;19.22;94.89
53868;BME280;41577;47.470;19.080;2022-08-21T00:58:09;99584.78;;;19.21;94.78
53868;BME280;41577;47.470;19.080;2022-08-21T00:58:26;99583.97;;;19.20;94.79
53868;BME280;41577;47.470;19.080;2022-08-21T00:58:42;99589.41;;;19.20;94.91
53868;BME280;41577;47.470;19.080;2022-08-21T00:58:57;99593.97;;;19.20;95.22
53868;BME280;41577;47.470;19.080;2022-08-21T00:59:13;99582.59;;;19.18;95.09
53868;BME280;41577;47.470;19.080;2022-08-21T00:59:29;99587.19;;;19.17;95.16
53868;BME280;41577;47.470;19.080;2022-08-21T00:59:48;99583.44;;;19.18;94.86
53868;BME280;41577;47.470;19.080;2022-08-21T01:00:09;99587.19;;;19.17;95.36
53868;BME280;41577;47.470;19.080;2022-08-21T01:00:29;99581.53;;;19.19;95.29
53868;BME280;41577;47.470;19.080;2022-08-21T01:00:46;99579.88;;;19.18;95.05
53868;BME280;41577;47.470;19.080;2022-08-21T01:01:03;99582.59;;;19.18;95.28
53868;BME280;41577;47.470;19.080;2022-08-21T01:01:19;99580.19;;;19.21;95.09
53868;BME280;41577;47.470;19.080;2022-08-21T01:01:33;99582.09;;;19.21;94.72
53868;BME280;41577;47.470;19.080;2022-08-21T01:01:49;99581.28;;;19.20;94.79
53868;BME280;41577;47.470;19.080;2022-08-21T01:02:08;99579.63;;;19.19;94.98
53868;BME280;41577;47.470;19.080;2022-08-21T01:02:25;99582.91;;;19.21;94.87
53868;BME280;41577;47.470;19.080;2022-08-21T01:02:39;99582.91;;;19.21;95.22
53868;BME280;41577;47.470;19.080;2022-08-21T01:02:54;99588.31;;;19.21;95.05
53868;BME280;41577;47.470;19.080;2022-08-21T01:03:13;99595.63;;;19.21;94.73
53868;BME280;41577;47.470;19.080;2022-08-21T01:03:27;99591.28;;;19.20;95.40
53868;BME280;41577;47.470;19.080;2022-08-21T01:03:45;99584.25;;;19.19;94.82
53868;BME280;41577;47.470;19.080;2022-08-21T01:03:59;99589.66;;;19.19;94.93
53868;BME280;41577;47.470;19.080;2022-08-21T01:04:14;99595.31;;;19.17;95.21
53868;BME280;41577;47.470;19.080;2022-08-21T01:04:29;99587.19;;;19.17;95.18
53868;BME280;41577;47.470;19.080;2022-08-21T01:04:44;99590.22;;;19.21;95.23
53868;BME280;41577;47.470;19.080;2022-08-21T01:04:58;99587.75;;;19.19;95.19
53868;BME280;41577;47.470;19.080;2022-08-21T01:05:12;99591.00;;;19.21;94.82
53868;BME280;41577;47.470;19.080;2022-08-21T01:05:28;99586.94;;;19.19;94.47
53868;BME280;41577;47.470;19.080;2022-08-21T01:05:43;99586.13;;;19.18;94.52
53868;BME280;41577;47.470;19.080;2022-08-21T01:05:58;99579.06;;;19.17;94.60
53868;BME280;41577;47.470;19.080;2022-08-21T01:06:12;99584.50;;;19.17;94.60
53868;BME280;41577;47.470;19.080;2022-08-21T01:06:27;99586.38;;;19.17;94.63
53868;BME280;41577;47.470;19.080;2022-08-21T01:06:42;99583.69;;;19.17;95.07
53868;BME280;41577;47.470;19.080;2022-08-21T01:06:59;99583.69;;;19.17;94.93
53868;BME280;41577;47.470;19.080;2022-08-21T01:07:14;99589.09;;;19.17;95.03
53868;BME280;41577;47.470;19.080;2022-08-21T01:07:28;99582.88;;;19.16;94.83
53868;BME280;41577;47.470;19.080;2022-08-21T01:07:43;99576.66;;;19.16;94.89
53868;BME280;41577;47.470;19.080;2022-08-21T01:07:59;99583.94;;;19.15;94.91
53868;BME280;41577;47.470;19.080;2022-08-21T01:08:13;99582.06;;;19.16;95.20
53868;BME280;41577;47.470;19.080;2022-08-21T01:08:30;99585.84;;;19.15;95.18
53868;BME280;41577;47.470;19.080;2022-08-21T01:08:45;99577.72;;;19.15;95.16
53868;BME280;41577;47.470;19.080;2022-08-21T01:09:00;99581.50;;;19.14;95.48
53868;BME280;41577;47.470;19.080;2022-08-21T01:09:15;99576.66;;;19.16;95.03
53868;BME280;41577;47.470;19.080;2022-08-21T01:09:32;99579.63;;;19.14;95.12
53868;BME280;41577;47.470;19.080;2022-08-21T01:09:47;99578.81;;;19.14;95.29
53868;BME280;41577;47.470;19.080;2022-08-21T01:10:06;99582.06;;;19.16;95.62
53868;BME280;41577;47.470;19.080;2022-08-21T01:10:20;99574.19;;;19.14;95.57
53868;BME280;41577;47.470;19.080;2022-08-21T01:10:36;99573.38;;;19.14;95.30
53868;BME280;41577;47.470;19.080;2022-08-21T01:10:53;99580.41;;;19.15;95.48
53868;BME280;41577;47.470;19.080;2022-08-21T01:11:12;99571.50;;;19.14;95.58
53868;BME280;41577;47.470;19.080;2022-08-21T01:11:27;99569.59;;;19.15;95.61
53868;BME280;41577;47.470;19.080;2022-08-21T01:11:43;99568.78;;;19.14;95.19
53868;BME280;41577;47.470;19.080;2022-08-21T01:11:58;99569.59;;;19.15;95.34
53868;BME280;41577;47.470;19.080;2022-08-21T01:12:14;99572.31;;;19.15;95.55
53868;BME280;41577;47.470;19.080;2022-08-21T01:12:29;99575.00;;;19.15;95.12
53868;BME280;41577;47.470;19.080;2022-08-21T01:12:45;99570.41;;;19.15;95.56
53868;BME280;41577;47.470;19.080;2022-08-21T01:12:59;99572.31;;;19.15;95.10
53868;BME280;41577;47.470;19.080;2022-08-21T01:13:15;99573.09;;;19.15;95.31
53868;BME280;41577;47.470;19.080;2022-08-21T01:13:36;99574.19;;;19.14;95.29
53868;BME280;41577;47.470;19.080;2022-08-21T01:13:51;99575.00;;;19.15;95.35
53868;BME280;41577;47.470;19.080;2022-08-21T01:14:06;99567.69;;;19.15;95.05
53868;BME280;41577;47.470;19.080;2022-08-21T01:14:21;99572.31;;;19.15;95.20
53868;BME280;41577;47.470;19.080;2022-08-21T01:14:36;99578.53;;;19.15;95.32
53868;BME280;41577;47.470;19.080;2022-08-21T01:14:53;99577.72;;;19.15;95.05
53868;BME280;41577;47.470;19.080;2022-08-21T01:15:09;99574.19;;;19.14;95.04
53868;BME280;41577;47.470;19.080;2022-08-21T01:15:29;99571.50;;;19.14;95.00
53868;BME280;41577;47.470;19.080;2022-08-21T01:15:46;99575.25;;;19.13;95.53
53868;BME280;41577;47.470;19.080;2022-08-21T01:16:03;99573.38;;;19.14;95.09
53868;BME280;41577;47.470;19.080;2022-08-21T01:16:20;99576.09;;;19.14;95.01
53868;BME280;41577;47.470;19.080;2022-08-21T01:16:36;99571.75;;;19.13;95.36
53868;BME280;41577;47.470;19.080;2022-08-21T01:16:52;99577.97;;;19.13;95.34
53868;BME280;41577;47.470;19.080;2022-08-21T01:17:06;99575.25;;;19.13;95.44
53868;BME280;41577;47.470;19.080;2022-08-21T01:17:21;99573.63;;;19.12;95.36
53868;BME280;41577;47.470;19.080;2022-08-21T01:17:37;99571.75;;;19.13;95.15
53868;BME280;41577;47.470;19.080;2022-08-21T01:17:52;99563.94;;;19.16;95.34
53868;BME280;41577;47.470;19.080;2022-08-21T01:18:11;99570.69;;;19.14;95.45
53868;BME280;41577;47.470;19.080;2022-08-21T01:18:29;99573.38;;;19.14;95.68
53868;BME280;41577;47.470;19.080;2022-08-21T01:18:44;99570.69;;;19.14;95.37
53868;BME280;41577;47.470;19.080;2022-08-21T01:19:00;99573.38;;;19.14;95.80
53868;BME280;41577;47.470;19.080;2022-08-21T01:19:18;99570.94;;;19.12;95.25
53868;BME280;41577;47.470;19.080;2022-08-21T01:19:34;99575.25;;;19.13;95.35
53868;BME280;41577;47.470;19.080;2022-08-21T01:19:49;99564.72;;;19.12;95.58
53868;BME280;41577;47.470;19.080;2022-08-21T01:20:08;99568.22;;;19.12;95.50
53868;BME280;41577;47.470;19.080;2022-08-21T01:20:25;99569.31;;;19.11;95.79
53868;BME280;41577;47.470;19.080;2022-08-21T01:20:43;99567.41;;;19.12;95.76
53868;BME280;41577;47.470;19.080;2022-08-21T01:21:06;99573.63;;;19.12;95.96
53868;BME280;41577;47.470;19.080;2022-08-21T01:21:24;99572.84;;;19.12;95.70
53868;BME280;41577;47.470;19.080;2022-08-21T01:21:39;99571.19;;;19.11;96.00
53868;BME280;41577;47.470;19.080;2022-08-21T01:21:54;99568.47;;;19.11;95.53
53868;BME280;41577;47.470;19.080;2022-08-21T01:22:08;99566.63;;;19.11;95.66